createdAt,value
2022-12-06T00:02:18.820Z,69.41
2022-12-06T00:04:46.743Z,69.51
2022-12-06T00:07:14.039Z,69.76
2022-12-06T00:09:42.070Z,69.57
2022-12-06T00:12:09.304Z,69.33
2022-12-06T00:14:37.468Z,69.42
2022-12-06T00:17:04.850Z,69.54
2022-12-06T00:19:32.105Z,69.07
2022-12-06T00:21:59.285Z,69.84
2022-12-06T00:24:26.495Z,69.95
2022-12-06T00:26:53.713Z,69.36
2022-12-06T00:29:22.203Z,69.33
2022-12-06T00:31:49.772Z,69.83
2022-12-06T00:34:17.148Z,70.27
2022-12-06T00:36:44.414Z,70.19
2022-12-06T00:39:14.005Z,70.42
2022-12-06T00:41:41.450Z,70.39
2022-12-06T00:44:08.897Z,70.98
2022-12-06T00:46:36.801Z,70.66
2022-12-06T00:49:05.017Z,70.36
2022-12-06T00:51:32.838Z,70.72
2022-12-06T00:54:00.125Z,70.49
2022-12-06T00:56:27.514Z,70.55
2022-12-06T00:58:54.798Z,70.88
2022-12-06T01:01:24.157Z,71.52
2022-12-06T01:03:53.440Z,70.94
2022-12-06T01:06:23.101Z,71.02
2022-12-06T01:08:50.424Z,70.91
2022-12-06T01:11:17.895Z,71.46
2022-12-06T01:13:45.184Z,71.48
2022-12-06T01:16:14.355Z,71.88
2022-12-06T01:18:41.921Z,72.26
2022-12-06T01:21:15.118Z,71.16
2022-12-06T01:23:43.423Z,71.17
2022-12-06T01:26:28.396Z,71.10
2022-12-06T01:28:55.763Z,71.41
2022-12-06T01:31:23.631Z,71.29
2022-12-06T01:33:50.940Z,71.87
2022-12-06T01:36:25.344Z,72.07
2022-12-06T01:38:53.696Z,72.14
2022-12-06T01:41:21.455Z,71.97
2022-12-06T01:43:48.980Z,71.48
2022-12-06T01:46:41.377Z,71.48
2022-12-06T01:49:11.601Z,71.67
2022-12-06T01:51:43.837Z,71.49
2022-12-06T01:54:11.608Z,71.87
2022-12-06T01:56:39.121Z,71.81
2022-12-06T01:59:06.469Z,71.27
2022-12-06T02:01:34.007Z,71.55
2022-12-06T02:04:03.963Z,71.15
2022-12-06T02:06:31.285Z,71.50
2022-12-06T02:08:59.393Z,71.37
2022-12-06T02:11:29.513Z,72.26
2022-12-06T02:14:00.981Z,71.71
2022-12-06T02:16:37.960Z,71.28
2022-12-06T02:19:29.555Z,70.90
2022-12-06T02:21:59.946Z,70.90
2022-12-06T02:24:35.487Z,71.14
2022-12-06T02:27:40.576Z,71.08
2022-12-06T02:30:34.560Z,70.92
2022-12-06T02:33:10.595Z,71.26
2022-12-06T02:35:40.516Z,71.11
2022-12-06T02:38:13.250Z,70.35
2022-12-06T02:40:47.199Z,70.81
2022-12-06T02:43:17.709Z,69.74
2022-12-06T02:45:51.919Z,69.83
2022-12-06T02:48:19.348Z,70.42
2022-12-06T02:50:49.691Z,70.42
2022-12-06T02:53:17.914Z,70.41
2022-12-06T02:55:45.321Z,70.08
2022-12-06T02:58:12.744Z,70.45
2022-12-06T03:00:44.716Z,69.76
2022-12-06T03:03:33.719Z,69.50
2022-12-06T03:06:03.733Z,69.68
2022-12-06T03:09:03.236Z,69.86
2022-12-06T03:11:56.719Z,69.74
2022-12-06T03:14:25.296Z,69.72
2022-12-06T03:17:04.511Z,69.43
2022-12-06T03:19:31.805Z,69.37
2022-12-06T03:22:14.830Z,69.83
2022-12-06T03:24:42.102Z,69.61
2022-12-06T03:27:15.479Z,70.12
2022-12-06T03:29:45.302Z,70.35
2022-12-06T03:32:13.221Z,70.60
2022-12-06T03:34:42.714Z,70.15
2022-12-06T03:37:11.485Z,69.92
2022-12-06T03:40:18.940Z,70.03
2022-12-06T03:42:46.366Z,69.65
2022-12-06T03:45:14.283Z,69.85
2022-12-06T03:48:08.157Z,69.97
2022-12-06T03:50:41.653Z,70.23
2022-12-06T03:53:08.887Z,70.15
2022-12-06T03:55:36.520Z,70.61
2022-12-06T03:58:03.770Z,70.55
2022-12-06T04:00:31.044Z,70.33
2022-12-06T04:02:58.263Z,70.94
2022-12-06T04:05:25.486Z,71.00
2022-12-06T04:07:53.973Z,70.33
2022-12-06T04:10:22.989Z,70.67
2022-12-06T04:13:05.857Z,70.84
2022-12-06T04:15:37.990Z,70.51
2022-12-06T04:18:16.055Z,70.51
2022-12-06T04:21:44.989Z,70.33
2022-12-06T04:24:12.187Z,70.57
2022-12-06T04:26:39.639Z,70.29
2022-12-06T04:29:25.527Z,70.61
2022-12-06T04:32:11.393Z,70.03
2022-12-06T04:34:57.203Z,70.29
2022-12-06T04:37:43.019Z,70.44
2022-12-06T04:40:10.759Z,70.65
2022-12-06T04:42:56.692Z,70.30
2022-12-06T04:45:26.093Z,70.74
2022-12-06T04:47:53.487Z,70.53
2022-12-06T04:50:20.720Z,70.23
2022-12-06T04:52:48.014Z,70.27
2022-12-06T04:55:15.391Z,69.91
2022-12-06T04:57:45.073Z,69.72
2022-12-06T05:00:12.887Z,70.22
2022-12-06T05:02:40.253Z,69.70
2022-12-06T05:05:08.105Z,70.28
2022-12-06T05:07:36.139Z,69.89
2022-12-06T05:10:03.839Z,69.78
2022-12-06T05:12:31.666Z,69.87
2022-12-06T05:14:58.920Z,69.61
2022-12-06T05:17:26.155Z,69.15
2022-12-06T05:19:53.995Z,69.00
2022-12-06T05:22:21.203Z,69.24
2022-12-06T05:24:48.704Z,69.33
2022-12-06T05:27:16.117Z,68.95
2022-12-06T05:29:43.387Z,68.75
2022-12-06T05:32:10.618Z,68.74
2022-12-06T05:34:38.048Z,68.16
2022-12-06T05:37:05.368Z,68.55
2022-12-06T05:39:32.617Z,68.48
2022-12-06T05:41:59.856Z,67.84
2022-12-06T05:44:27.076Z,68.11
2022-12-06T05:46:54.772Z,67.71
2022-12-06T05:49:22.021Z,67.55
2022-12-06T05:51:49.240Z,67.64
2022-12-06T05:54:16.467Z,67.81
2022-12-06T05:56:43.768Z,67.29
2022-12-06T05:59:11.156Z,67.48
2022-12-06T06:01:38.662Z,66.66
2022-12-06T06:04:05.952Z,66.62
2022-12-06T06:06:33.598Z,66.83
2022-12-06T06:09:01.171Z,66.31
2022-12-06T06:24:58.762Z,63.44
2022-12-06T06:27:26.158Z,63.23
2022-12-06T06:29:53.669Z,60.52
2022-12-06T06:32:21.099Z,60.80
2022-12-06T06:34:48.352Z,60.79
2022-12-06T06:37:15.705Z,60.84
2022-12-06T06:39:42.959Z,60.80
2022-12-06T06:42:11.176Z,61.24
2022-12-06T06:44:38.399Z,61.14
2022-12-06T06:47:06.074Z,60.02
2022-12-06T06:49:33.611Z,59.38
2022-12-06T06:52:00.804Z,59.79
2022-12-06T06:54:28.085Z,58.99
2022-12-06T06:56:58.373Z,58.03
2022-12-06T06:59:25.575Z,57.68
2022-12-06T07:01:52.892Z,57.01
2022-12-06T07:04:20.755Z,57.17
2022-12-06T07:06:48.251Z,56.91
2022-12-06T07:09:15.621Z,56.26
2022-12-06T07:11:42.913Z,55.53
2022-12-06T07:14:10.172Z,55.18
2022-12-06T07:16:37.564Z,54.47
2022-12-06T07:19:09.001Z,53.40
2022-12-06T07:21:36.843Z,53.15
2022-12-06T07:24:04.153Z,52.76
2022-12-06T07:26:32.104Z,52.87
2022-12-06T07:28:59.890Z,51.96
2022-12-06T07:31:28.466Z,51.00
2022-12-06T07:33:57.221Z,49.79
2022-12-06T07:36:25.461Z,48.40
2022-12-06T07:38:54.028Z,48.36
2022-12-06T07:41:40.873Z,46.77
2022-12-06T07:44:28.840Z,42.48
2022-12-06T07:46:56.386Z,42.30
2022-12-06T07:49:23.786Z,42.13
2022-12-06T07:51:51.108Z,39.93
2022-12-06T07:54:18.413Z,36.97
2022-12-06T07:56:46.283Z,33.51
2022-12-06T07:59:13.647Z,32.70
2022-12-06T08:01:40.905Z,32.96
2022-12-06T08:04:09.241Z,30.95
2022-12-06T08:06:37.107Z,30.34
2022-12-06T08:09:04.858Z,29.57
2022-12-06T08:11:32.257Z,30.22
2022-12-06T08:17:31.105Z,28.07
2022-12-06T08:19:58.666Z,26.78
2022-12-06T08:22:26.573Z,27.28
2022-12-06T08:24:54.178Z,27.21
2022-12-06T08:27:21.709Z,27.59
2022-12-06T08:29:49.277Z,27.51
2022-12-06T08:32:16.759Z,27.63
2022-12-06T08:34:44.274Z,27.11
2022-12-06T08:37:12.196Z,27.10
2022-12-06T08:39:39.780Z,26.06
2022-12-06T08:42:08.133Z,26.03
2022-12-06T08:44:36.535Z,25.89
2022-12-06T08:47:04.127Z,26.19
2022-12-06T08:49:31.675Z,25.07
2022-12-06T08:51:59.290Z,24.76
2022-12-06T08:54:26.929Z,24.83
2022-12-06T08:56:54.535Z,25.36
2022-12-06T08:59:22.032Z,25.40
2022-12-06T09:01:49.638Z,24.59
2022-12-06T09:04:17.187Z,24.92
2022-12-06T09:06:44.819Z,24.16
2022-12-06T09:09:13.041Z,24.17
2022-12-06T09:11:40.623Z,24.07
2022-12-06T09:14:09.331Z,24.62
2022-12-06T09:16:37.283Z,24.43
2022-12-06T09:19:04.885Z,23.86
2022-12-06T09:21:33.671Z,23.75
2022-12-06T09:24:01.033Z,23.76
2022-12-06T09:26:29.027Z,24.14
2022-12-06T09:28:56.972Z,25.22
2022-12-06T09:31:25.250Z,25.69
2022-12-06T09:33:52.702Z,24.44
2022-12-06T09:36:24.469Z,24.03
2022-12-06T09:39:01.991Z,24.30
2022-12-06T09:41:48.236Z,24.38
2022-12-06T09:44:32.185Z,24.04
2022-12-06T09:47:13.491Z,25.05
2022-12-06T09:49:59.838Z,24.98
2022-12-06T09:52:27.500Z,24.99
2022-12-06T09:55:14.151Z,25.17
2022-12-06T09:58:01.008Z,24.66
2022-12-06T10:00:29.343Z,24.44
2022-12-06T10:03:19.586Z,24.07
2022-12-06T10:06:03.243Z,24.15
2022-12-06T10:08:58.765Z,25.61
2022-12-06T10:11:51.555Z,25.44
2022-12-06T10:14:44.896Z,26.63
2022-12-06T10:17:15.213Z,27.88
2022-12-06T10:19:45.658Z,27.00
2022-12-06T10:22:27.646Z,26.75
2022-12-06T10:25:00.003Z,26.78
2022-12-06T10:27:35.772Z,27.40
2022-12-06T10:30:06.307Z,27.55
2022-12-06T10:32:55.064Z,27.14
2022-12-06T10:35:36.995Z,27.15
2022-12-06T10:38:20.557Z,29.04
2022-12-06T10:41:11.463Z,28.99
2022-12-06T10:44:22.334Z,28.19
2022-12-06T10:47:10.180Z,28.46
2022-12-06T10:49:44.041Z,27.84
2022-12-06T10:52:19.914Z,27.33
2022-12-06T10:55:02.636Z,27.26
2022-12-06T10:57:42.818Z,26.98
2022-12-06T11:00:15.577Z,27.05
2022-12-06T11:03:05.486Z,26.97
2022-12-06T11:05:52.039Z,28.13
2022-12-06T11:08:22.329Z,28.64
2022-12-06T11:10:49.722Z,28.73
2022-12-06T11:13:23.159Z,28.40
2022-12-06T11:16:14.621Z,27.32
2022-12-06T11:18:41.983Z,26.90
2022-12-06T11:21:31.846Z,26.62
2022-12-06T11:24:10.472Z,27.84
2022-12-06T11:26:43.915Z,27.42
2022-12-06T11:29:13.154Z,27.57
2022-12-06T11:31:49.547Z,27.88
2022-12-06T11:34:41.809Z,28.28
2022-12-06T11:37:14.753Z,29.43
2022-12-06T11:39:42.528Z,29.56
2022-12-06T11:42:10.390Z,30.06
2022-12-06T11:44:48.023Z,29.92
2022-12-06T11:47:24.552Z,31.12
2022-12-06T11:49:53.845Z,30.53
2022-12-06T11:52:42.983Z,31.07
2022-12-06T11:55:18.988Z,31.25
2022-12-06T11:57:56.662Z,31.18
2022-12-06T12:00:25.056Z,31.56
2022-12-06T12:02:54.755Z,31.96
2022-12-06T12:05:26.784Z,31.61
2022-12-06T12:07:56.887Z,31.73
2022-12-06T12:10:33.573Z,31.97
2022-12-06T12:13:31.820Z,31.27
2022-12-06T12:16:20.731Z,31.38
2022-12-06T12:19:04.880Z,32.36
2022-12-06T12:21:41.230Z,32.58
2022-12-06T12:25:17.460Z,32.25
2022-12-06T12:27:39.766Z,32.64
2022-12-06T12:30:20.816Z,32.72
2022-12-06T12:33:08.708Z,33.10
2022-12-06T12:35:40.968Z,33.25
2022-12-06T12:38:11.587Z,32.83
2022-12-06T12:40:46.411Z,33.02
2022-12-06T12:43:13.706Z,32.97
2022-12-06T12:46:02.684Z,32.83
2022-12-06T12:48:31.048Z,33.34
2022-12-06T12:51:00.323Z,33.54
2022-12-06T12:53:29.214Z,33.48
2022-12-06T12:56:10.229Z,33.42
2022-12-06T12:58:38.275Z,33.79
2022-12-06T13:01:13.328Z,33.92
2022-12-06T13:03:51.252Z,34.13
2022-12-06T13:06:28.225Z,34.30
2022-12-06T13:08:56.926Z,34.21
2022-12-06T13:11:24.553Z,34.39
2022-12-06T13:13:52.163Z,34.15
2022-12-06T13:16:23.391Z,34.26
2022-12-06T13:18:51.734Z,34.78
2022-12-06T13:21:30.458Z,34.84
2022-12-06T13:24:09.997Z,34.89
2022-12-06T13:26:48.744Z,34.93
2022-12-06T13:29:32.351Z,34.92
2022-12-06T13:32:04.764Z,34.94
2022-12-06T13:34:50.823Z,35.38
2022-12-06T13:37:43.431Z,35.91
2022-12-06T13:40:32.816Z,35.73
2022-12-06T13:43:01.247Z,35.60
2022-12-06T13:45:41.987Z,35.70
2022-12-06T13:48:24.816Z,36.13
2022-12-06T13:51:12.126Z,35.91
2022-12-06T13:54:07.471Z,36.18
2022-12-06T13:56:34.754Z,35.96
2022-12-06T13:59:02.180Z,36.00
2022-12-06T14:01:36.972Z,36.30
2022-12-06T14:06:55.957Z,36.26
2022-12-06T14:09:24.593Z,36.33
2022-12-06T14:11:53.226Z,36.50
2022-12-06T14:14:24.911Z,36.50
2022-12-06T14:17:06.303Z,36.94
2022-12-06T14:19:42.720Z,36.88
2022-12-06T14:22:19.299Z,36.96
2022-12-06T14:25:01.941Z,36.92
2022-12-06T14:27:32.076Z,37.39
2022-12-06T14:30:25.226Z,37.24
2022-12-06T14:32:55.378Z,37.48
2022-12-06T14:35:25.060Z,37.78
2022-12-06T14:38:02.889Z,37.91
2022-12-06T14:40:55.667Z,37.72
2022-12-06T14:43:24.972Z,38.00
2022-12-06T14:45:53.184Z,37.92
2022-12-06T14:48:21.865Z,38.04
2022-12-06T14:50:53.280Z,37.89
2022-12-06T14:53:30.522Z,38.17
2022-12-06T14:55:58.594Z,38.00
2022-12-06T14:58:31.409Z,38.66
2022-12-06T15:01:04.899Z,38.27
2022-12-06T15:03:33.416Z,38.44
2022-12-06T15:06:21.485Z,38.42
2022-12-06T15:08:55.177Z,37.80
2022-12-06T15:11:47.757Z,38.37
2022-12-06T15:14:23.946Z,38.13
2022-12-06T15:17:06.525Z,38.08
2022-12-06T15:19:36.377Z,38.26
2022-12-06T15:22:04.469Z,38.23
2022-12-06T15:24:32.349Z,38.13
2022-12-06T15:26:59.871Z,38.16
2022-12-06T15:29:27.214Z,38.08
2022-12-06T15:31:55.017Z,37.97
2022-12-06T15:34:26.883Z,37.93
2022-12-06T15:37:09.343Z,37.81
2022-12-06T15:39:43.542Z,37.55
2022-12-06T15:42:21.516Z,37.79
2022-12-06T15:44:50.172Z,37.20
2022-12-06T15:47:21.090Z,37.01
2022-12-06T15:49:51.136Z,37.30
2022-12-06T15:52:20.165Z,37.02
2022-12-06T15:54:47.525Z,36.92
2022-12-06T15:57:15.108Z,36.57
2022-12-06T15:59:42.438Z,36.56
2022-12-06T16:06:43.750Z,36.25
2022-12-06T16:09:11.928Z,36.30
2022-12-06T16:11:39.728Z,36.02
2022-12-06T16:14:07.288Z,35.64
2022-12-06T16:16:39.850Z,35.94
2022-12-06T16:19:11.305Z,36.25
2022-12-06T16:21:53.380Z,35.85
2022-12-06T16:24:20.841Z,36.13
2022-12-06T16:26:48.675Z,35.42
2022-12-06T16:29:18.107Z,35.37
2022-12-06T16:31:46.829Z,35.37
2022-12-06T16:34:14.495Z,35.30
2022-12-06T16:37:06.713Z,35.25
2022-12-06T16:39:34.534Z,35.20
2022-12-06T16:42:03.497Z,35.07
2022-12-06T16:44:31.093Z,35.22
2022-12-06T16:46:58.687Z,35.22
2022-12-06T16:52:16.034Z,34.85
2022-12-06T16:54:43.850Z,34.88
2022-12-06T16:57:11.730Z,34.76
2022-12-06T16:59:39.388Z,34.67
2022-12-06T17:02:19.579Z,34.79
2022-12-06T17:04:47.547Z,34.67
2022-12-06T17:07:15.274Z,35.14
2022-12-06T17:09:43.260Z,35.03
2022-12-06T17:12:13.249Z,35.05
2022-12-06T17:14:41.810Z,35.26
2022-12-06T17:17:17.213Z,34.89
2022-12-06T17:19:44.736Z,34.67
2022-12-06T17:22:12.774Z,34.88
2022-12-06T17:24:40.614Z,34.57
2022-12-06T17:27:09.940Z,34.42
2022-12-06T17:29:38.479Z,34.46
2022-12-06T17:32:07.055Z,34.77
2022-12-06T17:34:34.885Z,34.88
2022-12-06T17:37:02.523Z,34.83
2022-12-06T17:39:30.189Z,35.23
2022-12-06T17:42:16.102Z,35.24
2022-12-06T17:44:43.945Z,34.75
2022-12-06T17:47:11.414Z,34.73
2022-12-06T17:49:39.033Z,34.76
2022-12-06T17:52:06.467Z,34.95
2022-12-06T17:54:34.001Z,35.16
2022-12-06T17:57:01.502Z,35.34
2022-12-06T17:59:32.009Z,35.37
2022-12-06T18:02:17.482Z,35.11
2022-12-06T18:04:46.215Z,35.33
2022-12-06T18:07:13.998Z,35.60
2022-12-06T18:09:41.431Z,35.79
2022-12-06T18:12:09.750Z,35.66
2022-12-06T18:14:37.170Z,35.80
2022-12-06T18:17:04.650Z,35.56
2022-12-06T18:19:32.260Z,35.69
2022-12-06T18:21:59.765Z,35.55
2022-12-06T18:24:32.092Z,35.73
2022-12-06T18:27:03.166Z,35.84
2022-12-06T18:29:30.721Z,35.43
2022-12-06T18:31:58.387Z,35.73
2022-12-06T18:34:26.102Z,35.39
2022-12-06T18:36:53.490Z,35.84
2022-12-06T18:39:24.829Z,35.64
2022-12-06T18:41:53.220Z,35.71
2022-12-06T18:44:22.826Z,35.94
2022-12-06T18:46:50.244Z,36.01
2022-12-06T18:49:17.727Z,35.90
2022-12-06T18:51:45.224Z,35.76
2022-12-06T18:54:14.032Z,35.67
2022-12-06T18:56:42.008Z,36.29
2022-12-06T18:59:11.375Z,35.94
2022-12-06T19:01:39.180Z,35.93
2022-12-06T19:04:07.667Z,36.33
2022-12-06T19:06:36.505Z,36.47
2022-12-06T19:09:12.323Z,36.65
2022-12-06T19:11:41.336Z,36.31
2022-12-06T19:14:08.771Z,36.29
2022-12-06T19:16:39.824Z,36.59
2022-12-06T19:19:15.498Z,36.56
2022-12-06T19:21:47.903Z,36.49
2022-12-06T19:24:18.431Z,36.84
2022-12-06T19:26:45.830Z,36.58
2022-12-06T19:29:13.865Z,36.67
2022-12-06T19:31:41.677Z,37.16
2022-12-06T19:34:20.254Z,37.02
2022-12-06T19:36:48.686Z,36.92
2022-12-06T19:39:16.319Z,36.97
2022-12-06T19:42:02.316Z,36.93
2022-12-06T19:44:30.364Z,37.35
2022-12-06T19:46:58.320Z,37.12
2022-12-06T19:49:26.457Z,37.31
2022-12-06T19:51:54.003Z,37.47
2022-12-06T19:54:26.392Z,37.63
2022-12-06T19:56:55.119Z,37.70
2022-12-06T19:59:23.353Z,37.45
2022-12-06T20:01:51.061Z,37.91
2022-12-06T20:04:23.524Z,37.75
2022-12-06T20:06:51.906Z,37.96
2022-12-06T20:09:20.754Z,38.17
2022-12-06T20:12:04.310Z,38.33
2022-12-06T20:14:38.103Z,38.35
2022-12-06T20:17:14.076Z,38.54
2022-12-06T20:19:46.541Z,38.52
2022-12-06T20:22:15.105Z,38.70
2022-12-06T20:24:43.351Z,38.97
2022-12-06T20:27:10.946Z,38.73
2022-12-06T20:29:38.864Z,39.34
2022-12-06T20:32:06.496Z,39.31
2022-12-06T20:34:35.023Z,39.39
2022-12-06T20:37:04.037Z,39.72
2022-12-06T20:39:33.405Z,39.70
2022-12-06T20:42:03.563Z,39.74
2022-12-06T20:44:31.627Z,39.70
2022-12-06T20:46:59.494Z,39.72
2022-12-06T20:49:27.023Z,40.31
2022-12-06T20:51:54.485Z,40.47
2022-12-06T20:54:22.103Z,40.25
2022-12-06T20:56:52.164Z,40.43
2022-12-06T20:59:20.244Z,40.25
2022-12-06T21:01:47.730Z,40.29
2022-12-06T21:04:15.325Z,40.57
2022-12-06T21:06:42.871Z,40.57
2022-12-06T21:09:10.327Z,40.48
2022-12-06T21:11:37.833Z,40.32
2022-12-06T21:14:06.246Z,40.60
2022-12-06T21:16:34.491Z,40.69
2022-12-06T21:19:06.579Z,40.45
2022-12-06T21:21:36.495Z,40.38
2022-12-06T21:24:09.781Z,40.33
2022-12-06T21:26:37.282Z,40.45
2022-12-06T21:29:04.993Z,40.57
2022-12-06T21:31:34.422Z,40.96
2022-12-06T21:34:02.528Z,41.24
2022-12-06T21:36:30.199Z,41.34
2022-12-06T21:38:57.925Z,41.85
2022-12-06T21:41:25.346Z,42.32
2022-12-06T21:43:53.138Z,42.47
2022-12-06T21:46:22.538Z,42.75
2022-12-06T21:48:55.452Z,42.32
2022-12-06T21:51:23.885Z,42.56
2022-12-06T21:53:51.626Z,42.38
2022-12-06T21:58:07.584Z,42.74
2022-12-06T22:00:35.041Z,42.44
2022-12-06T22:03:02.547Z,42.64
2022-12-06T22:05:30.122Z,43.95
2022-12-06T22:07:57.576Z,43.70
2022-12-06T22:10:24.977Z,43.69
2022-12-06T22:12:52.721Z,44.17
2022-12-06T22:15:20.166Z,44.46
2022-12-06T22:17:47.772Z,44.51
2022-12-06T22:20:15.472Z,44.52
2022-12-06T22:22:42.967Z,45.29
2022-12-06T22:25:13.732Z,45.14
2022-12-06T22:27:45.474Z,45.76
2022-12-06T22:30:13.238Z,46.51
2022-12-06T22:32:40.908Z,46.89
2022-12-06T22:35:08.589Z,46.91
2022-12-06T22:37:36.134Z,47.03
2022-12-06T22:40:04.064Z,47.52
2022-12-06T22:42:32.529Z,48.14
2022-12-06T22:44:59.903Z,48.12
2022-12-06T22:47:27.281Z,48.36
2022-12-06T22:49:54.812Z,48.58
2022-12-06T22:52:22.646Z,48.59
2022-12-06T22:54:50.095Z,48.27
2022-12-06T22:57:17.698Z,48.41
2022-12-06T22:59:45.077Z,48.80
2022-12-06T23:02:12.925Z,49.24
2022-12-06T23:04:40.427Z,49.97
2022-12-06T23:07:07.830Z,49.73
2022-12-06T23:09:35.792Z,50.46
2022-12-06T23:12:03.603Z,50.47
2022-12-06T23:14:31.172Z,51.02
2022-12-06T23:16:58.732Z,50.95
2022-12-06T23:19:26.156Z,50.82
2022-12-06T23:21:54.167Z,51.44
2022-12-06T23:24:21.620Z,51.20
2022-12-06T23:26:56.160Z,52.55
2022-12-06T23:29:25.446Z,52.52
2022-12-06T23:31:53.190Z,52.46
2022-12-06T23:34:22.709Z,52.81
2022-12-06T23:36:50.287Z,53.21
2022-12-06T23:39:18.047Z,53.27
2022-12-06T23:41:45.520Z,54.02
2022-12-06T23:44:13.511Z,54.27
2022-12-06T23:46:41.788Z,54.93
2022-12-06T23:49:15.048Z,55.46
2022-12-06T23:51:42.561Z,56.58
2022-12-06T23:54:11.177Z,56.96
2022-12-06T23:56:39.663Z,57.80
2022-12-06T23:59:07.763Z,57.93
